sensor_id;sensor_type;location;lat;lon;timestamp;temperature;humidity
12815;DHT22;6472;52.328;13.070;2023-02-18T00:01:08;6.60;99.90
12815;DHT22;6472;52.328;13.070;2023-02-18T00:03:41;6.50;99.90
12815;DHT22;6472;52.328;13.070;2023-02-18T00:06:14;6.50;99.90
12815;DHT22;6472;52.328;13.070;2023-02-18T00:08:43;6.50;99.90
12815;DHT22;6472;52.328;13.070;2023-02-18T00:11:12;6.50;99.90
12815;DHT22;6472;52.328;13.070;2023-02-18T00:13:41;6.50;99.90
12815;DHT22;6472;52.328;13.070;2023-02-18T00:16:11;6.60;99.90
12815;DHT22;6472;52.328;13.070;2023-02-18T00:18:39;6.50;99.90
12815;DHT22;6472;52.328;13.070;2023-02-18T00:21:08;6.50;99.90
12815;DHT22;6472;52.328;13.070;2023-02-18T00:23:36;6.50;99.90
12815;DHT22;6472;52.328;13.070;2023-02-18T00:26:05;6.30;99.90
12815;DHT22;6472;52.328;13.070;2023-02-18T00:28:34;6.30;99.90
12815;DHT22;6472;52.328;13.070;2023-02-18T00:31:08;6.20;99.90
12815;DHT22;6472;52.328;13.070;2023-02-18T00:33:36;6.20;99.90
12815;DHT22;6472;52.328;13.070;2023-02-18T00:36:06;6.20;99.90
12815;DHT22;6472;52.328;13.070;2023-02-18T00:38:36;6.10;99.90
12815;DHT22;6472;52.328;13.070;2023-02-18T00:41:05;6.10;99.90
12815;DHT22;6472;52.328;13.070;2023-02-18T00:43:33;6.00;99.90
12815;DHT22;6472;52.328;13.070;2023-02-18T00:46:01;6.10;99.90
12815;DHT22;6472;52.328;13.070;2023-02-18T00:48:31;6.10;99.90
12815;DHT22;6472;52.328;13.070;2023-02-18T00:50:59;6.20;99.90
12815;DHT22;6472;52.328;13.070;2023-02-18T00:53:27;6.20;99.90
12815;DHT22;6472;52.328;13.070;2023-02-18T00:55:55;6.10;99.90
12815;DHT22;6472;52.328;13.070;2023-02-18T00:58:24;6.10;99.90
12815;DHT22;6472;52.328;13.070;2023-02-18T01:00:53;5.90;99.90
12815;DHT22;6472;52.328;13.070;2023-02-18T01:03:21;5.90;99.90
12815;DHT22;6472;52.328;13.070;2023-02-18T01:05:51;6.00;99.90
12815;DHT22;6472;52.328;13.070;2023-02-18T01:08:20;6.10;99.90
12815;DHT22;6472;52.328;13.070;2023-02-18T01:10:52;6.00;99.90
12815;DHT22;6472;52.328;13.070;2023-02-18T01:13:21;5.90;99.90
12815;DHT22;6472;52.328;13.070;2023-02-18T01:15:49;5.90;99.90
12815;DHT22;6472;52.328;13.070;2023-02-18T01:18:17;5.80;99.90
12815;DHT22;6472;52.328;13.070;2023-02-18T01:20:45;5.90;99.90
12815;DHT22;6472;52.328;13.070;2023-02-18T01:23:15;5.90;99.90
12815;DHT22;6472;52.328;13.070;2023-02-18T01:25:44;6.00;99.90
12815;DHT22;6472;52.328;13.070;2023-02-18T01:28:13;6.10;99.90
12815;DHT22;6472;52.328;13.070;2023-02-18T01:30:41;6.10;99.90
12815;DHT22;6472;52.328;13.070;2023-02-18T01:33:10;6.10;99.90
12815;DHT22;6472;52.328;13.070;2023-02-18T01:35:39;6.00;99.90
12815;DHT22;6472;52.328;13.070;2023-02-18T01:38:08;6.10;99.90
12815;DHT22;6472;52.328;13.070;2023-02-18T01:40:44;6.00;99.90
12815;DHT22;6472;52.328;13.070;2023-02-18T01:43:14;6.00;99.90
12815;DHT22;6472;52.328;13.070;2023-02-18T01:45:50;6.00;99.90
12815;DHT22;6472;52.328;13.070;2023-02-18T01:48:21;5.90;99.90
12815;DHT22;6472;52.328;13.070;2023-02-18T01:50:52;5.90;99.90
12815;DHT22;6472;52.328;13.070;2023-02-18T01:53:25;6.00;99.90
12815;DHT22;6472;52.328;13.070;2023-02-18T01:55:55;6.00;99.90
12815;DHT22;6472;52.328;13.070;2023-02-18T01:58:24;6.00;99.90
12815;DHT22;6472;52.328;13.070;2023-02-18T02:00:52;6.00;99.90
12815;DHT22;6472;52.328;13.070;2023-02-18T02:03:20;5.90;99.90
12815;DHT22;6472;52.328;13.070;2023-02-18T02:05:48;5.90;99.90
12815;DHT22;6472;52.328;13.070;2023-02-18T02:08:16;5.80;99.90
12815;DHT22;6472;52.328;13.070;2023-02-18T02:11:10;5.90;99.90
12815;DHT22;6472;52.328;13.070;2023-02-18T02:13:59;5.90;99.90
12815;DHT22;6472;52.328;13.070;2023-02-18T02:16:38;6.00;99.90
12815;DHT22;6472;52.328;13.070;2023-02-18T02:19:33;5.90;99.90
12815;DHT22;6472;52.328;13.070;2023-02-18T02:22:22;5.80;99.90
12815;DHT22;6472;52.328;13.070;2023-02-18T02:25:15;5.80;99.90
12815;DHT22;6472;52.328;13.070;2023-02-18T02:34:14;5.80;99.90
12815;DHT22;6472;52.328;13.070;2023-02-18T02:36:45;5.90;99.90
12815;DHT22;6472;52.328;13.070;2023-02-18T02:39:18;5.70;99.90
12815;DHT22;6472;52.328;13.070;2023-02-18T02:41:53;5.60;99.90
12815;DHT22;6472;52.328;13.070;2023-02-18T02:44:31;5.70;99.90
12815;DHT22;6472;52.328;13.070;2023-02-18T02:47:08;5.70;99.90
12815;DHT22;6472;52.328;13.070;2023-02-18T02:49:44;5.70;99.90
12815;DHT22;6472;52.328;13.070;2023-02-18T02:52:18;5.60;99.90
12815;DHT22;6472;52.328;13.070;2023-02-18T02:54:48;5.60;99.90
12815;DHT22;6472;52.328;13.070;2023-02-18T02:57:45;5.60;99.90
12815;DHT22;6472;52.328;13.070;2023-02-18T03:00:15;5.70;99.90
12815;DHT22;6472;52.328;13.070;2023-02-18T03:02:58;5.70;99.90
12815;DHT22;6472;52.328;13.070;2023-02-18T03:05:38;5.70;99.90
12815;DHT22;6472;52.328;13.070;2023-02-18T03:08:25;5.80;99.90
12815;DHT22;6472;52.328;13.070;2023-02-18T03:11:03;5.60;99.90
12815;DHT22;6472;52.328;13.070;2023-02-18T03:13:44;5.60;99.90
12815;DHT22;6472;52.328;13.070;2023-02-18T03:16:24;5.60;99.90
12815;DHT22;6472;52.328;13.070;2023-02-18T03:19:00;5.60;99.90
12815;DHT22;6472;52.328;13.070;2023-02-18T03:21:33;5.60;99.90
12815;DHT22;6472;52.328;13.070;2023-02-18T03:24:07;5.60;99.90
12815;DHT22;6472;52.328;13.070;2023-02-18T03:26:40;5.60;99.90
12815;DHT22;6472;52.328;13.070;2023-02-18T03:29:11;5.50;99.90
12815;DHT22;6472;52.328;13.070;2023-02-18T03:31:42;5.50;99.90
12815;DHT22;6472;52.328;13.070;2023-02-18T03:34:14;5.60;99.90
12815;DHT22;6472;52.328;13.070;2023-02-18T03:36:45;5.60;99.90
12815;DHT22;6472;52.328;13.070;2023-02-18T03:39:15;5.60;99.90
12815;DHT22;6472;52.328;13.070;2023-02-18T03:41:44;5.60;99.90
12815;DHT22;6472;52.328;13.070;2023-02-18T03:44:13;5.60;99.90
12815;DHT22;6472;52.328;13.070;2023-02-18T03:46:42;5.50;99.90
12815;DHT22;6472;52.328;13.070;2023-02-18T03:49:11;5.60;99.90
12815;DHT22;6472;52.328;13.070;2023-02-18T03:51:40;5.50;99.90
12815;DHT22;6472;52.328;13.070;2023-02-18T03:54:10;5.50;99.90
12815;DHT22;6472;52.328;13.070;2023-02-18T03:56:40;5.40;99.90
12815;DHT22;6472;52.328;13.070;2023-02-18T03:59:09;5.50;99.90
12815;DHT22;6472;52.328;13.070;2023-02-18T04:01:38;5.40;99.90
12815;DHT22;6472;52.328;13.070;2023-02-18T04:04:07;5.40;99.90
12815;DHT22;6472;52.328;13.070;2023-02-18T04:06:35;5.40;99.90
12815;DHT22;6472;52.328;13.070;2023-02-18T04:09:03;5.40;99.90
12815;DHT22;6472;52.328;13.070;2023-02-18T04:11:37;5.40;99.90
12815;DHT22;6472;52.328;13.070;2023-02-18T04:14:06;5.40;99.90
12815;DHT22;6472;52.328;13.070;2023-02-18T04:16:34;5.30;99.90
12815;DHT22;6472;52.328;13.070;2023-02-18T04:19:02;5.40;99.90
12815;DHT22;6472;52.328;13.070;2023-02-18T04:21:31;5.40;99.90
12815;DHT22;6472;52.328;13.070;2023-02-18T04:23:59;5.40;99.90
12815;DHT22;6472;52.328;13.070;2023-02-18T04:26:28;5.50;99.90
12815;DHT22;6472;52.328;13.070;2023-02-18T04:28:57;5.60;99.90
12815;DHT22;6472;52.328;13.070;2023-02-18T04:31:25;5.70;99.90
12815;DHT22;6472;52.328;13.070;2023-02-18T04:33:53;5.80;99.90
12815;DHT22;6472;52.328;13.070;2023-02-18T04:36:21;5.90;99.90
12815;DHT22;6472;52.328;13.070;2023-02-18T04:38:49;5.80;99.90
12815;DHT22;6472;52.328;13.070;2023-02-18T04:41:17;5.90;99.90
12815;DHT22;6472;52.328;13.070;2023-02-18T04:43:45;6.00;99.90
12815;DHT22;6472;52.328;13.070;2023-02-18T04:46:15;6.00;99.90
12815;DHT22;6472;52.328;13.070;2023-02-18T04:48:43;6.00;99.90
12815;DHT22;6472;52.328;13.070;2023-02-18T04:51:11;6.10;99.90
12815;DHT22;6472;52.328;13.070;2023-02-18T04:53:39;6.10;99.90
12815;DHT22;6472;52.328;13.070;2023-02-18T04:56:07;6.10;99.90
12815;DHT22;6472;52.328;13.070;2023-02-18T04:58:35;6.20;99.90
12815;DHT22;6472;52.328;13.070;2023-02-18T05:01:04;6.20;99.90
12815;DHT22;6472;52.328;13.070;2023-02-18T05:03:33;6.30;99.90
12815;DHT22;6472;52.328;13.070;2023-02-18T05:06:05;6.20;99.90
12815;DHT22;6472;52.328;13.070;2023-02-18T05:08:33;6.30;99.90
12815;DHT22;6472;52.328;13.070;2023-02-18T05:11:05;6.20;99.90
12815;DHT22;6472;52.328;13.070;2023-02-18T05:13:33;6.20;99.90
12815;DHT22;6472;52.328;13.070;2023-02-18T05:16:01;6.20;99.90
12815;DHT22;6472;52.328;13.070;2023-02-18T05:18:29;6.10;99.90
12815;DHT22;6472;52.328;13.070;2023-02-18T05:20:59;6.10;99.90
12815;DHT22;6472;52.328;13.070;2023-02-18T05:23:27;6.20;99.90
12815;DHT22;6472;52.328;13.070;2023-02-18T05:25:54;6.00;99.90
12815;DHT22;6472;52.328;13.070;2023-02-18T05:28:23;6.00;99.90
12815;DHT22;6472;52.328;13.070;2023-02-18T05:30:51;6.00;99.90
12815;DHT22;6472;52.328;13.070;2023-02-18T05:33:19;6.00;99.90
12815;DHT22;6472;52.328;13.070;2023-02-18T05:35:47;6.00;99.90
12815;DHT22;6472;52.328;13.070;2023-02-18T05:38:16;6.00;99.90
12815;DHT22;6472;52.328;13.070;2023-02-18T05:40:44;6.00;99.90
12815;DHT22;6472;52.328;13.070;2023-02-18T05:43:19;6.00;99.90
12815;DHT22;6472;52.328;13.070;2023-02-18T05:45:53;6.00;99.90
12815;DHT22;6472;52.328;13.070;2023-02-18T05:48:21;6.00;99.90
12815;DHT22;6472;52.328;13.070;2023-02-18T05:50:49;5.90;99.90
12815;DHT22;6472;52.328;13.070;2023-02-18T05:53:21;6.10;99.90
12815;DHT22;6472;52.328;13.070;2023-02-18T05:55:48;5.80;99.90
12815;DHT22;6472;52.328;13.070;2023-02-18T05:58:16;5.80;99.90
12815;DHT22;6472;52.328;13.070;2023-02-18T06:00:44;5.80;99.90
12815;DHT22;6472;52.328;13.070;2023-02-18T06:03:12;5.90;99.90
12815;DHT22;6472;52.328;13.070;2023-02-18T06:05:40;5.90;99.90
12815;DHT22;6472;52.328;13.070;2023-02-18T06:08:09;6.00;99.90
12815;DHT22;6472;52.328;13.070;2023-02-18T06:10:40;5.90;99.90
12815;DHT22;6472;52.328;13.070;2023-02-18T06:13:08;6.00;99.90
12815;DHT22;6472;52.328;13.070;2023-02-18T06:15:36;6.00;99.90
12815;DHT22;6472;52.328;13.070;2023-02-18T06:18:05;6.00;99.90
12815;DHT22;6472;52.328;13.070;2023-02-18T06:20:33;6.10;99.90
12815;DHT22;6472;52.328;13.070;2023-02-18T06:23:01;6.20;99.90
12815;DHT22;6472;52.328;13.070;2023-02-18T06:25:29;6.10;99.90
12815;DHT22;6472;52.328;13.070;2023-02-18T06:27:59;6.10;99.90
12815;DHT22;6472;52.328;13.070;2023-02-18T06:30:26;6.10;99.90
12815;DHT22;6472;52.328;13.070;2023-02-18T06:32:55;6.10;99.90
12815;DHT22;6472;52.328;13.070;2023-02-18T06:35:23;6.10;99.90
12815;DHT22;6472;52.328;13.070;2023-02-18T06:37:52;6.00;99.90
12815;DHT22;6472;52.328;13.070;2023-02-18T06:40:20;6.00;99.90
12815;DHT22;6472;52.328;13.070;2023-02-18T06:42:48;5.90;99.90
12815;DHT22;6472;52.328;13.070;2023-02-18T06:45:18;5.90;99.90
12815;DHT22;6472;52.328;13.070;2023-02-18T06:47:46;5.90;99.90
12815;DHT22;6472;52.328;13.070;2023-02-18T06:50:15;5.90;99.90
12815;DHT22;6472;52.328;13.070;2023-02-18T06:52:45;5.90;99.90
12815;DHT22;6472;52.328;13.070;2023-02-18T06:55:13;5.80;99.90
12815;DHT22;6472;52.328;13.070;2023-02-18T06:57:41;5.90;99.90
12815;DHT22;6472;52.328;13.070;2023-02-18T07:00:10;5.90;99.90
12815;DHT22;6472;52.328;13.070;2023-02-18T07:02:39;5.90;99.90
12815;DHT22;6472;52.328;13.070;2023-02-18T07:05:08;5.90;99.90
12815;DHT22;6472;52.328;13.070;2023-02-18T07:07:36;5.90;99.90
12815;DHT22;6472;52.328;13.070;2023-02-18T07:10:05;5.90;99.90
12815;DHT22;6472;52.328;13.070;2023-02-18T07:12:33;6.00;99.90
12815;DHT22;6472;52.328;13.070;2023-02-18T07:15:01;6.10;99.90
12815;DHT22;6472;52.328;13.070;2023-02-18T07:17:29;6.10;99.90
12815;DHT22;6472;52.328;13.070;2023-02-18T07:19:59;6.00;99.90
12815;DHT22;6472;52.328;13.070;2023-02-18T07:22:27;6.00;99.90
12815;DHT22;6472;52.328;13.070;2023-02-18T07:24:56;6.00;99.90
12815;DHT22;6472;52.328;13.070;2023-02-18T07:27:24;6.00;99.90
12815;DHT22;6472;52.328;13.070;2023-02-18T07:29:52;6.00;99.90
12815;DHT22;6472;52.328;13.070;2023-02-18T07:32:21;6.00;99.90
12815;DHT22;6472;52.328;13.070;2023-02-18T07:34:50;6.00;99.90
12815;DHT22;6472;52.328;13.070;2023-02-18T07:37:20;6.00;99.90
12815;DHT22;6472;52.328;13.070;2023-02-18T07:39:48;6.10;99.90
12815;DHT22;6472;52.328;13.070;2023-02-18T07:42:16;6.10;99.90
12815;DHT22;6472;52.328;13.070;2023-02-18T07:44:44;6.10;99.90
12815;DHT22;6472;52.328;13.070;2023-02-18T07:47:14;6.10;99.90
12815;DHT22;6472;52.328;13.070;2023-02-18T07:49:45;6.10;99.90
12815;DHT22;6472;52.328;13.070;2023-02-18T07:52:14;6.20;99.90
12815;DHT22;6472;52.328;13.070;2023-02-18T07:54:43;6.20;99.90
12815;DHT22;6472;52.328;13.070;2023-02-18T07:57:15;6.20;99.90
12815;DHT22;6472;52.328;13.070;2023-02-18T07:59:44;6.30;99.90
12815;DHT22;6472;52.328;13.070;2023-02-18T08:02:16;6.30;99.90
12815;DHT22;6472;52.328;13.070;2023-02-18T08:04:45;6.30;99.90
12815;DHT22;6472;52.328;13.070;2023-02-18T08:07:14;6.40;99.90
12815;DHT22;6472;52.328;13.070;2023-02-18T08:09:43;6.50;99.90
12815;DHT22;6472;52.328;13.070;2023-02-18T08:12:14;6.50;99.90
12815;DHT22;6472;52.328;13.070;2023-02-18T08:14:42;6.40;99.90
12815;DHT22;6472;52.328;13.070;2023-02-18T08:17:10;6.50;99.90
12815;DHT22;6472;52.328;13.070;2023-02-18T08:19:38;6.50;99.90
12815;DHT22;6472;52.328;13.070;2023-02-18T08:22:06;6.50;99.90
12815;DHT22;6472;52.328;13.070;2023-02-18T08:24:35;6.50;99.90
12815;DHT22;6472;52.328;13.070;2023-02-18T08:27:04;6.60;99.90
12815;DHT22;6472;52.328;13.070;2023-02-18T08:29:32;6.60;99.90
12815;DHT22;6472;52.328;13.070;2023-02-18T08:32:01;6.50;99.90
12815;DHT22;6472;52.328;13.070;2023-02-18T08:34:29;6.50;99.90
12815;DHT22;6472;52.328;13.070;2023-02-18T08:36:57;6.50;99.90
12815;DHT22;6472;52.328;13.070;2023-02-18T08:39:25;6.60;99.90
12815;DHT22;6472;52.328;13.070;2023-02-18T08:41:54;6.60;99.90
12815;DHT22;6472;52.328;13.070;2023-02-18T08:44:25;6.50;99.90
12815;DHT22;6472;52.328;13.070;2023-02-18T08:46:54;6.60;99.90
12815;DHT22;6472;52.328;13.070;2023-02-18T08:49:22;6.60;99.90
12815;DHT22;6472;52.328;13.070;2023-02-18T08:51:50;6.70;99.90
12815;DHT22;6472;52.328;13.070;2023-02-18T08:54:18;6.70;99.90
12815;DHT22;6472;52.328;13.070;2023-02-18T08:56:46;6.80;99.90
12815;DHT22;6472;52.328;13.070;2023-02-18T08:59:14;6.80;99.90
12815;DHT22;6472;52.328;13.070;2023-02-18T09:01:43;6.70;99.90
12815;DHT22;6472;52.328;13.070;2023-02-18T09:04:11;6.90;99.90
12815;DHT22;6472;52.328;13.070;2023-02-18T09:06:39;7.00;99.90
12815;DHT22;6472;52.328;13.070;2023-02-18T09:09:07;6.90;99.90
12815;DHT22;6472;52.328;13.070;2023-02-18T09:11:36;7.00;99.90
12815;DHT22;6472;52.328;13.070;2023-02-18T09:14:03;7.00;99.90
12815;DHT22;6472;52.328;13.070;2023-02-18T09:16:32;7.10;99.90
12815;DHT22;6472;52.328;13.070;2023-02-18T09:19:01;7.20;99.90
12815;DHT22;6472;52.328;13.070;2023-02-18T09:21:29;7.20;99.90
12815;DHT22;6472;52.328;13.070;2023-02-18T09:23:58;7.20;99.90
12815;DHT22;6472;52.328;13.070;2023-02-18T09:26:26;7.20;99.90
12815;DHT22;6472;52.328;13.070;2023-02-18T09:28:55;7.20;99.90
12815;DHT22;6472;52.328;13.070;2023-02-18T09:31:25;7.20;99.90
12815;DHT22;6472;52.328;13.070;2023-02-18T09:33:55;7.20;99.90
12815;DHT22;6472;52.328;13.070;2023-02-18T09:36:26;7.20;99.90
12815;DHT22;6472;52.328;13.070;2023-02-18T09:38:54;7.20;99.90
12815;DHT22;6472;52.328;13.070;2023-02-18T09:41:30;7.20;99.90
12815;DHT22;6472;52.328;13.070;2023-02-18T09:44:01;7.20;99.90
12815;DHT22;6472;52.328;13.070;2023-02-18T09:46:32;7.30;99.90
12815;DHT22;6472;52.328;13.070;2023-02-18T09:49:02;7.30;99.90
12815;DHT22;6472;52.328;13.070;2023-02-18T09:51:32;7.40;99.90
12815;DHT22;6472;52.328;13.070;2023-02-18T09:54:00;7.40;99.90
12815;DHT22;6472;52.328;13.070;2023-02-18T09:56:31;7.40;99.90
12815;DHT22;6472;52.328;13.070;2023-02-18T09:59:04;7.50;99.90
12815;DHT22;6472;52.328;13.070;2023-02-18T10:01:35;7.40;99.90
12815;DHT22;6472;52.328;13.070;2023-02-18T10:04:10;7.50;99.90
12815;DHT22;6472;52.328;13.070;2023-02-18T10:06:42;7.50;99.90
12815;DHT22;6472;52.328;13.070;2023-02-18T10:09:17;7.50;99.90
12815;DHT22;6472;52.328;13.070;2023-02-18T10:11:48;7.50;99.90
12815;DHT22;6472;52.328;13.070;2023-02-18T10:14:19;7.50;99.90
12815;DHT22;6472;52.328;13.070;2023-02-18T10:16:48;7.50;99.90
12815;DHT22;6472;52.328;13.070;2023-02-18T10:19:24;7.40;99.90
12815;DHT22;6472;52.328;13.070;2023-02-18T10:21:55;7.40;99.90
12815;DHT22;6472;52.328;13.070;2023-02-18T10:24:27;7.40;99.90
12815;DHT22;6472;52.328;13.070;2023-02-18T10:26:57;7.40;99.90
12815;DHT22;6472;52.328;13.070;2023-02-18T10:29:27;7.50;99.90
12815;DHT22;6472;52.328;13.070;2023-02-18T10:32:04;7.40;99.90
12815;DHT22;6472;52.328;13.070;2023-02-18T10:34:39;7.40;99.90
12815;DHT22;6472;52.328;13.070;2023-02-18T10:37:26;7.40;99.90
12815;DHT22;6472;52.328;13.070;2023-02-18T10:40:05;7.40;99.90
12815;DHT22;6472;52.328;13.070;2023-02-18T10:42:45;7.50;99.90
12815;DHT22;6472;52.328;13.070;2023-02-18T10:45:23;7.40;99.90
12815;DHT22;6472;52.328;13.070;2023-02-18T10:48:03;7.40;99.90
12815;DHT22;6472;52.328;13.070;2023-02-18T10:50:36;7.30;99.90
12815;DHT22;6472;52.328;13.070;2023-02-18T10:53:11;7.40;99.90
12815;DHT22;6472;52.328;13.070;2023-02-18T10:55:41;7.40;99.90
12815;DHT22;6472;52.328;13.070;2023-02-18T10:58:31;7.50;99.90
12815;DHT22;6472;52.328;13.070;2023-02-18T11:01:02;7.50;99.90
12815;DHT22;6472;52.328;13.070;2023-02-18T11:03:42;7.50;99.90
12815;DHT22;6472;52.328;13.070;2023-02-18T11:06:24;7.60;99.90
12815;DHT22;6472;52.328;13.070;2023-02-18T11:08:55;7.70;99.90
12815;DHT22;6472;52.328;13.070;2023-02-18T11:11:28;7.70;99.90
12815;DHT22;6472;52.328;13.070;2023-02-18T11:13:59;7.80;99.90
12815;DHT22;6472;52.328;13.070;2023-02-18T11:16:37;7.70;99.90
12815;DHT22;6472;52.328;13.070;2023-02-18T11:19:32;7.70;99.90
12815;DHT22;6472;52.328;13.070;2023-02-18T11:22:07;7.80;99.90
12815;DHT22;6472;52.328;13.070;2023-02-18T11:24:38;7.70;99.90
12815;DHT22;6472;52.328;13.070;2023-02-18T11:27:08;7.60;99.90
12815;DHT22;6472;52.328;13.070;2023-02-18T11:29:40;7.60;99.90
12815;DHT22;6472;52.328;13.070;2023-02-18T11:32:10;7.60;99.90
12815;DHT22;6472;52.328;13.070;2023-02-18T11:34:41;7.60;99.90
12815;DHT22;6472;52.328;13.070;2023-02-18T11:37:12;7.80;99.90
12815;DHT22;6472;52.328;13.070;2023-02-18T11:39:48;7.80;99.90
12815;DHT22;6472;52.328;13.070;2023-02-18T11:42:18;7.80;99.90
12815;DHT22;6472;52.328;13.070;2023-02-18T11:44:52;7.90;99.90
12815;DHT22;6472;52.328;13.070;2023-02-18T11:47:26;7.90;99.90
12815;DHT22;6472;52.328;13.070;2023-02-18T11:50:10;7.90;99.90
12815;DHT22;6472;52.328;13.070;2023-02-18T11:52:42;8.10;99.90
12815;DHT22;6472;52.328;13.070;2023-02-18T11:55:17;8.10;99.90
12815;DHT22;6472;52.328;13.070;2023-02-18T11:57:49;8.20;99.90
12815;DHT22;6472;52.328;13.070;2023-02-18T12:00:24;8.20;99.90
12815;DHT22;6472;52.328;13.070;2023-02-18T12:02:59;8.30;99.90
12815;DHT22;6472;52.328;13.070;2023-02-18T12:05:30;8.40;99.90
12815;DHT22;6472;52.328;13.070;2023-02-18T12:08:04;8.40;99.90
12815;DHT22;6472;52.328;13.070;2023-02-18T12:10:37;8.50;99.90
12815;DHT22;6472;52.328;13.070;2023-02-18T12:13:11;8.60;99.90
12815;DHT22;6472;52.328;13.070;2023-02-18T12:15:51;8.80;99.90
12815;DHT22;6472;52.328;13.070;2023-02-18T12:18:29;9.00;99.90
12815;DHT22;6472;52.328;13.070;2023-02-18T12:21:24;9.20;99.90
12815;DHT22;6472;52.328;13.070;2023-02-18T12:24:05;9.20;99.90
12815;DHT22;6472;52.328;13.070;2023-02-18T12:26:46;9.40;99.90
12815;DHT22;6472;52.328;13.070;2023-02-18T12:29:41;9.50;99.90
12815;DHT22;6472;52.328;13.070;2023-02-18T12:32:30;9.60;99.90
12815;DHT22;6472;52.328;13.070;2023-02-18T12:35:21;9.60;99.90
12815;DHT22;6472;52.328;13.070;2023-02-18T12:38:29;9.80;99.90
12815;DHT22;6472;52.328;13.070;2023-02-18T12:41:12;9.90;99.90
12815;DHT22;6472;52.328;13.070;2023-02-18T12:43:50;10.00;99.90
12815;DHT22;6472;52.328;13.070;2023-02-18T12:46:32;10.10;99.90
12815;DHT22;6472;52.328;13.070;2023-02-18T12:49:22;10.10;99.90
12815;DHT22;6472;52.328;13.070;2023-02-18T12:52:03;10.20;99.90
12815;DHT22;6472;52.328;13.070;2023-02-18T12:54:50;10.20;99.90
12815;DHT22;6472;52.328;13.070;2023-02-18T12:57:35;10.30;99.90
12815;DHT22;6472;52.328;13.070;2023-02-18T13:00:22;10.40;99.90
12815;DHT22;6472;52.328;13.070;2023-02-18T13:03:36;10.40;99.90
12815;DHT22;6472;52.328;13.070;2023-02-18T13:06:19;10.50;99.90
12815;DHT22;6472;52.328;13.070;2023-02-18T13:08:58;10.60;99.90
12815;DHT22;6472;52.328;13.070;2023-02-18T13:11:41;10.60;99.90
12815;DHT22;6472;52.328;13.070;2023-02-18T13:14:18;10.60;99.90
12815;DHT22;6472;52.328;13.070;2023-02-18T13:16:52;10.60;99.90
12815;DHT22;6472;52.328;13.070;2023-02-18T13:19:23;10.60;99.90
12815;DHT22;6472;52.328;13.070;2023-02-18T13:21:55;10.60;99.90
12815;DHT22;6472;52.328;13.070;2023-02-18T13:24:29;10.40;99.90
12815;DHT22;6472;52.328;13.070;2023-02-18T13:27:05;10.50;99.90
12815;DHT22;6472;52.328;13.070;2023-02-18T13:29:41;10.50;99.90
12815;DHT22;6472;52.328;13.070;2023-02-18T13:32:21;10.50;99.90
12815;DHT22;6472;52.328;13.070;2023-02-18T13:34:54;10.50;99.90
12815;DHT22;6472;52.328;13.070;2023-02-18T13:37:30;10.40;99.90
12815;DHT22;6472;52.328;13.070;2023-02-18T13:40:00;10.40;99.90
12815;DHT22;6472;52.328;13.070;2023-02-18T13:42:36;10.40;99.90
12815;DHT22;6472;52.328;13.070;2023-02-18T13:45:31;10.40;99.90
12815;DHT22;6472;52.328;13.070;2023-02-18T13:48:01;10.40;99.90
12815;DHT22;6472;52.328;13.070;2023-02-18T13:50:41;10.30;99.90
12815;DHT22;6472;52.328;13.070;2023-02-18T13:53:19;10.40;99.90
12815;DHT22;6472;52.328;13.070;2023-02-18T13:55:54;10.40;99.90
12815;DHT22;6472;52.328;13.070;2023-02-18T13:58:27;10.40;99.90
12815;DHT22;6472;52.328;13.070;2023-02-18T14:01:01;10.40;99.90
12815;DHT22;6472;52.328;13.070;2023-02-18T14:03:58;10.30;99.90
12815;DHT22;6472;52.328;13.070;2023-02-18T14:06:30;10.30;99.90
12815;DHT22;6472;52.328;13.070;2023-02-18T14:09:33;10.30;99.90
12815;DHT22;6472;52.328;13.070;2023-02-18T14:11:55;10.40;99.90
12815;DHT22;6472;52.328;13.070;2023-02-18T14:14:37;10.40;99.90
12815;DHT22;6472;52.328;13.070;2023-02-18T14:17:26;10.40;99.90
12815;DHT22;6472;52.328;13.070;2023-02-18T14:23:48;10.20;99.90
12815;DHT22;6472;52.328;13.070;2023-02-18T14:26:29;10.10;99.90
12815;DHT22;6472;52.328;13.070;2023-02-18T14:29:03;10.10;99.90
12815;DHT22;6472;52.328;13.070;2023-02-18T14:31:42;10.10;99.90
12815;DHT22;6472;52.328;13.070;2023-02-18T14:37:14;10.00;99.90
12815;DHT22;6472;52.328;13.070;2023-02-18T14:39:54;10.10;99.90
12815;DHT22;6472;52.328;13.070;2023-02-18T14:42:35;10.10;99.90
12815;DHT22;6472;52.328;13.070;2023-02-18T14:45:18;10.00;99.90
12815;DHT22;6472;52.328;13.070;2023-02-18T14:48:16;10.00;99.90
12815;DHT22;6472;52.328;13.070;2023-02-18T14:50:48;10.00;99.90
12815;DHT22;6472;52.328;13.070;2023-02-18T14:53:19;10.00;99.90
12815;DHT22;6472;52.328;13.070;2023-02-18T14:55:50;10.00;99.90
12815;DHT22;6472;52.328;13.070;2023-02-18T14:58:27;10.10;99.90
12815;DHT22;6472;52.328;13.070;2023-02-18T15:00:56;10.10;99.90
12815;DHT22;6472;52.328;13.070;2023-02-18T15:03:26;10.20;99.90
12815;DHT22;6472;52.328;13.070;2023-02-18T15:05:55;10.10;99.90
12815;DHT22;6472;52.328;13.070;2023-02-18T15:08:24;10.20;99.90
12815;DHT22;6472;52.328;13.070;2023-02-18T15:10:58;10.20;99.90
12815;DHT22;6472;52.328;13.070;2023-02-18T15:13:28;10.10;99.90
12815;DHT22;6472;52.328;13.070;2023-02-18T15:15:59;10.10;99.90
12815;DHT22;6472;52.328;13.070;2023-02-18T15:18:32;10.00;99.90
12815;DHT22;6472;52.328;13.070;2023-02-18T15:21:01;10.10;99.90
12815;DHT22;6472;52.328;13.070;2023-02-18T15:23:30;10.00;99.90
12815;DHT22;6472;52.328;13.070;2023-02-18T15:26:00;10.00;99.90
12815;DHT22;6472;52.328;13.070;2023-02-18T15:28:30;10.00;99.90
12815;DHT22;6472;52.328;13.070;2023-02-18T15:31:00;10.00;99.90
12815;DHT22;6472;52.328;13.070;2023-02-18T15:33:28;9.90;99.90
12815;DHT22;6472;52.328;13.070;2023-02-18T15:36:01;10.00;99.90
12815;DHT22;6472;52.328;13.070;2023-02-18T15:38:30;10.00;99.90
12815;DHT22;6472;52.328;13.070;2023-02-18T15:40:59;9.90;99.90
12815;DHT22;6472;52.328;13.070;2023-02-18T15:43:28;9.90;99.90
12815;DHT22;6472;52.328;13.070;2023-02-18T15:45:57;9.90;99.90
12815;DHT22;6472;52.328;13.070;2023-02-18T15:48:29;9.90;99.90
12815;DHT22;6472;52.328;13.070;2023-02-18T15:51:02;9.80;99.90
12815;DHT22;6472;52.328;13.070;2023-02-18T15:53:44;9.90;99.90
12815;DHT22;6472;52.328;13.070;2023-02-18T15:56:20;9.90;99.90
12815;DHT22;6472;52.328;13.070;2023-02-18T15:58:56;9.90;99.90
12815;DHT22;6472;52.328;13.070;2023-02-18T16:01:34;9.80;99.90
12815;DHT22;6472;52.328;13.070;2023-02-18T16:04:05;9.90;99.90
12815;DHT22;6472;52.328;13.070;2023-02-18T16:06:36;9.90;99.90
12815;DHT22;6472;52.328;13.070;2023-02-18T16:09:11;9.90;99.90
12815;DHT22;6472;52.328;13.070;2023-02-18T16:11:44;9.90;99.90
12815;DHT22;6472;52.328;13.070;2023-02-18T16:14:30;9.80;99.90
12815;DHT22;6472;52.328;13.070;2023-02-18T16:17:13;9.80;99.90
12815;DHT22;6472;52.328;13.070;2023-02-18T16:19:49;9.80;99.90
12815;DHT22;6472;52.328;13.070;2023-02-18T16:22:35;9.80;99.90
12815;DHT22;6472;52.328;13.070;2023-02-18T16:25:13;9.90;99.90
12815;DHT22;6472;52.328;13.070;2023-02-18T16:27:49;9.80;99.90
12815;DHT22;6472;52.328;13.070;2023-02-18T16:30:19;9.70;99.90